Lowell, Michigan
Current Conditions -  °F | °C
As of 12:53 PM on Sunday 21 Dec 2014 (Local Time) from KGRR Reporting Station
Haze Haze  
Wind Chill: 25°   Ceiling: 4900
Heat Index: 33°   Visibility: 5mi
Dew Point: 25°   Wind: 10mph
Humidity: 72%   Direction: 170°S
Pressure: 30.2"   Gusts: NA
Location:  42.93°N, 85.34°W
Report Text: KGRR 211753Z 17009KT 5SM HZ FEW029 OVC049 01/M04 A3020 RMK AO2 SLP235 T00061039 10006 21011 56017
Loading
Personal Weather Stations






























Interactive Weather Map New forecast layout! Learn more

10-Day Weather Forecast

Advertisements
Track Severe Weather on mobile